• Join FlightAware (Why Join?)
  • Login
  • US Flag 
11:52PM EDT


 

Airport Tracker/Info


-or-


 

Live Flight TrackerFlight Track Log ✈ UAL252 ✈ 14-Jun-2013 ✈ KLAX - KBWI

Flight Track Log - Related Links

Times and Time Zones

All times are in EDT time to prevent confusion due to time zone crossing. See the UAL252 flight status page for this flight to view local times or setup timezone preferences in your user account.

Time Position Orientation Groundspeed Altitude Reporting Facility
EDT Latitude Longitude Course Direction KTS MPH feet Rate Location/Type
12:23PM 33.9214 -118.4686 90° East 210 242 1,800  Level Los Angeles Center
12:24PM 33.8669 -118.5200 218° Southwest 268 308 3,600 2,160 Climbing Los Angeles Center
12:25PM 33.7928 -118.5192 179° South 274 315 6,300 2,400 Climbing Los Angeles Center
12:26PM 33.6800 -118.4963 101° East  Level FlightAware Approximate
12:26PM 33.7153 -118.5192 180° South 283 326 8,600  Level Los Angeles Center
12:27PM 33.6411 -118.3527 116° Southeast  Level FlightAware Approximate
12:27PM 33.6667 -118.4200 120° Southeast 300 345 10,600  Level Los Angeles Center
12:28PM 33.6333 -118.2027 90° East  Level FlightAware Approximate
12:28PM 33.6431 -118.3139 105° East 337 388 12,600  Level Los Angeles Center
12:29PM 33.6444 -118.1997 89° East 353 406 14,400 1,500 Climbing Los Angeles Center
12:30PM 33.6444 -118.0797 90° East 360 414 15,700 1,500 Climbing Los Angeles Center
12:31PM 33.6442 -117.9228 90° East 393 452 17,600 1,560 Climbing Los Angeles Center
12:33PM 33.6439 -117.7889 90° East 402 463 19,000 1,320 Climbing Los Angeles Center
12:34PM 33.6433 -117.6500 90° East 415 478 20,400 1,320 Climbing Los Angeles Center
12:35PM 33.6419 -117.5078 91° East 426 490 21,800 1,200 Climbing Los Angeles Center
12:36PM 33.6411 -117.3636 90° East 434 499 23,000 1,080 Climbing Los Angeles Center
12:37PM 33.6397 -117.2156 91° East 444 511 24,100 1,140 Climbing Los Angeles Center
12:38PM 33.6394 -117.0339 90° East 454 522 25,400 1,020 Climbing Los Angeles Center
12:39PM 33.6369 -116.8794 91° East 464 534 26,300 840 Climbing Los Angeles Center
12:40PM 33.6356 -116.7053 91° East 472 543 27,200 780 Climbing Los Angeles Center
12:41PM 33.6244 -116.5439 95° East 485 558 28,000 840 Climbing Los Angeles Center
12:42PM 33.6044 -116.3825 98° East 488 562 29,000 960 Climbing Los Angeles Center
12:43PM 33.5864 -116.2233 98° East 482 555 30,100 960 Climbing Los Angeles Center
12:44PM 33.5656 -116.0644 99° East 479 551 31,100 960 Climbing Los Angeles Center
12:45PM 33.5464 -115.9056 98° East 481 554 32,100 780 Climbing Los Angeles Center
12:46PM 33.5264 -115.7481 99° East 478 550 32,800 420 Climbing Los Angeles Center
12:47PM 33.5019 -115.5578 99° East 481 554 33,000  Climbing Los Angeles Center
12:48PM 33.4808 -115.3961 99° East 488 562 32,900 -60 Descending Los Angeles Center
12:49PM 33.4608 -115.2364 98° East 487 560 32,900  Level Los Angeles Center
12:50PM 33.4386 -115.0756 99° East 488 562 32,900  Level Los Angeles Center
12:51PM 33.4181 -114.9122 99° East 496 571 33,000  Climbing Los Angeles Center
12:52PM 33.3961 -114.7506 99° East 494 568 33,000  Level Los Angeles Center
12:53PM 33.3692 -114.5578 99° East 491 565 33,000 -60 Level Los Angeles Center
12:54PM 33.3486 -114.3981 99° East 488 562 32,900 -120 Descending Los Angeles Center
12:55PM 33.3386 -114.3119 98° East 490 564 32,900  Level Albuquerque Center
12:56PM 33.3172 -114.1511 99° East 489 563 32,900  Level Albuquerque Center
12:57PM 33.2947 -113.9922 100° East 488 562 32,900  Level Albuquerque Center
12:58PM 33.2708 -113.8333 100° East 485 558 32,900  Level Albuquerque Center
12:59PM 33.2439 -113.6394 99° East 491 565 33,000  Climbing Albuquerque Center
01:00PM 33.2211 -113.4800 100° East 489 563 33,000  Level Albuquerque Center
01:01PM 33.1981 -113.3206 100° East 487 560 33,000 -60 Level Albuquerque Center
01:02PM 33.1744 -113.1608 100° East 487 560 32,900 -60 Descending Albuquerque Center
01:03PM 33.1500 -113.0028 100° East 485 558 32,900  Level Albuquerque Center
01:04PM 33.1261 -112.8431 100° East 485 558 33,000  Climbing Albuquerque Center
01:05PM 33.1019 -112.6831 100° East 487 560 33,000 -60 Level Albuquerque Center
01:06PM 33.0731 -112.4922 100° East 486 559 32,900  Descending Albuquerque Center
01:07PM 33.0478 -112.3308 101° East 492 566 33,000  Climbing Albuquerque Center
01:08PM 33.0208 -112.1608 101° East 494 568 33,000  Level Albuquerque Center
01:09PM 32.9972 -112.0025 100° East 490 564 33,000  Level Albuquerque Center
01:10PM 32.9714 -111.8444 101° East 490 564 33,000  Level Albuquerque Center
01:11PM 32.9469 -111.6864 100° East 487 560 33,000  Level Albuquerque Center
01:12PM 32.9214 -111.5297 101° East 487 560 33,000  Level Albuquerque Center
01:13PM 32.8903 -111.3394 101° East 490 564 33,000  Level Albuquerque Center
01:14PM 32.8653 -111.1819 101° East 489 563 33,000 240 Level Albuquerque Center
01:16PM 32.8389 -111.0239 101° East 490 564 33,600 480 Climbing Albuquerque Center
01:17PM 32.8128 -110.8669 101° East 487 560 34,100 480 Climbing Albuquerque Center
01:18PM 32.7861 -110.7078 101° East 490 564 34,700 420 Climbing Albuquerque Center
01:19PM 32.7589 -110.5483 101° East 492 566 35,000 120 Climbing Albuquerque Center
01:20PM 32.7278 -110.3603 101° East 490 564 35,000  Level Albuquerque Center
01:21PM 32.7014 -110.2025 101° East 489 563 35,000  Level Albuquerque Center
01:22PM 32.6731 -110.0447 102° East 489 563 35,000  Level Albuquerque Center
01:23PM 32.6458 -109.8850 101° East 494 568 35,000  Level Albuquerque Center
01:24PM 32.6192 -109.7264 101° East 493 567 35,000  Level Albuquerque Center
01:25PM 32.5856 -109.5389 102° East 494 568 35,000  Level Albuquerque Center
01:26PM 32.5539 -109.3822 103° East 492 566 35,000 -60 Level Albuquerque Center
01:27PM 32.5267 -109.2244 102° East 492 566 34,900 -60 Descending Albuquerque Center
01:28PM 32.4986 -109.0653 102° East 494 568 34,900  Level Albuquerque Center
01:29PM 32.4681 -108.9083 103° East 494 568 34,900  Level Albuquerque Center
01:30PM 32.4367 -108.7503 103° East 494 568 35,000  Climbing Albuquerque Center
01:31PM 32.4008 -108.5589 102° East 498 573 35,000  Level Albuquerque Center
01:32PM 32.3714 -108.4014 102° East 494 568 35,000  Level Albuquerque Center
01:33PM 32.3411 -108.2447 103° East 491 565 35,000 -60 Level Albuquerque Center
01:34PM 32.3117 -108.0878 102° East 491 565 34,900  Descending Albuquerque Center
01:35PM 32.2825 -107.9308 102° East 493 567 35,000  Climbing Albuquerque Center
01:36PM 32.2458 -107.7431 103° East 492 566 34,900  Descending Albuquerque Center
01:37PM 32.2158 -107.5886 103° East 490 564 35,000  Climbing Albuquerque Center
01:38PM 32.1844 -107.4269 103° East 490 564 34,900 -60 Descending Albuquerque Center
01:39PM 32.1547 -107.2781 103° East 492 566 34,900  Level Albuquerque Center
01:40PM 32.1250 -107.1214 103° East 495 570 34,900  Level Albuquerque Center
01:41PM 32.0878 -106.9336 103° East 496 571 34,900  Level Albuquerque Center
01:42PM 32.0556 -106.7761 104° East 499 574 35,000  Climbing Albuquerque Center
01:43PM 32.0236 -106.6178 103° East 500 575 35,000  Level Albuquerque Center
01:44PM 31.9908 -106.4586 104° East 501 577 35,000  Level Albuquerque Center
01:45PM 31.9669 -106.2967 100° East 507 583 35,000  Level Albuquerque Center
01:47PM 31.9711 -106.1003 89° East 502 578 35,000  Level Albuquerque Center
01:48PM 31.9883 -105.9328 83° East 502 578 35,000 -60 Level Albuquerque Center
01:49PM 32.0033 -105.7908 83° East 497 572 34,900 -60 Descending Albuquerque Center
01:50PM 32.0231 -105.5969 83° East 495 570 34,900  Level Albuquerque Center
01:51PM 32.0403 -105.4344 83° East 498 573 34,900  Level Albuquerque Center
01:52PM 32.0575 -105.2742 83° East 494 568 34,900  Level Albuquerque Center
01:53PM 32.0742 -105.1142 83° East 491 565 34,900  Level Albuquerque Center
01:54PM 32.0906 -104.9514 83° East 496 571 35,000  Climbing Albuquerque Center
01:55PM 32.1069 -104.7886 83° East 498 573 35,000 -60 Level Albuquerque Center
01:56PM 32.1219 -104.6269 84° East 498 573 34,900  Descending Albuquerque Center
01:57PM 32.1411 -104.4336 83° East 495 570 35,000  Climbing Albuquerque Center
01:58PM 32.1558 -104.2711 84° East 498 573 35,000  Level Albuquerque Center
01:59PM 32.1711 -104.1122 83° East 490 564 35,000  Level Albuquerque Center
02:00PM 32.1883 -103.9408 83° East 491 565 35,000  Level Albuquerque Center
02:01PM 32.2008 -103.7814 85° East 490 564 35,000  Level Albuquerque Center
02:02PM 32.2167 -103.6231 83° East 487 560 35,000  Level Albuquerque Center
02:03PM 32.2300 -103.4639 84° East 488 562 35,000  Level Albuquerque Center
02:04PM 32.2431 -103.3056 84° East 486 559 35,000  Level Albuquerque Center
02:05PM 32.2553 -103.1483 85° East 485 558 35,000  Level Albuquerque Center
02:06PM 32.2714 -102.9594 84° East 485 558 35,000  Level Albuquerque Center
02:07PM 32.2819 -102.8386 84° East 478 550 35,000  Level Fort Worth Center
02:08PM 32.2928 -102.6819 85° East 478 550 35,000  Level Fort Worth Center
02:09PM 32.3033 -102.5253 85° East 478 550 35,000  Level Fort Worth Center
02:10PM 32.3158 -102.3664 85° East 478 550 35,000  Level Fort Worth Center
02:11PM 32.3283 -102.2072 85° East 478 550 35,000  Level Fort Worth Center
02:12PM 32.3428 -102.0506 84° East 478 550 35,000  Level Fort Worth Center
02:13PM 32.3547 -101.8939 85° East 478 550 35,000  Level Fort Worth Center
02:14PM 32.3664 -101.7347 85° East 478 550 35,000  Level Fort Worth Center
02:15PM 32.3781 -101.5803 85° East 478 550 35,000  Level Fort Worth Center
02:16PM 32.3892 -101.4233 85° East 478 550 35,000  Level Fort Worth Center
02:17PM 32.3953 -101.3031 87° East 478 550 35,000  Level Fort Worth Center
02:18PM 32.4067 -101.1289 86° East 473 544 35,000  Level Fort Worth Center
02:19PM 32.4194 -100.9744 84° East 473 544 35,000  Level Fort Worth Center
02:20PM 32.4258 -100.8197 87° East 479 551 35,000  Level Fort Worth Center
02:21PM 32.4364 -100.6625 85° East 474 545 35,000  Level Fort Worth Center
02:22PM 32.4444 -100.5028 87° East 474 545 35,000  Level Fort Worth Center
02:23PM 32.4525 -100.3481 86° East 474 545 35,000  Level Fort Worth Center
02:24PM 32.4603 -100.1906 87° East 479 551 35,000  Level Fort Worth Center
02:25PM 32.4697 -100.0358 86° East 479 551 35,000  Level Fort Worth Center
02:26PM 32.4797 -99.8614 86° East 474 545 35,000  Level Fort Worth Center
02:27PM 32.5033 -99.7042 80° East 479 551 35,000  Level Fort Worth Center
02:28PM 32.5292 -99.5472 79° East 479 551 35,000  Level Fort Worth Center
02:29PM 32.5567 -99.3928 78° East 484 557 35,000  Level Fort Worth Center
02:30PM 32.5800 -99.2353 80° East 484 557 35,000  Level Fort Worth Center
02:31PM 32.6050 -99.0806 79° East 484 557 35,000  Level Fort Worth Center
02:32PM 32.6300 -98.9256 79° East 484 557 35,000  Level Fort Worth Center
02:33PM 32.6547 -98.7731 79° East 484 557 35,000  Level Fort Worth Center
02:34PM 32.6772 -98.6178 80° East 484 557 35,000  Level Fort Worth Center
02:35PM 32.7036 -98.4603 79° East 479 551 35,000  Level Fort Worth Center
02:36PM 32.7214 -98.3247 81° East 473 544 35,000  Level Fort Worth Center
02:37PM 32.7478 -98.1519 80° East 473 544 35,000  Level Fort Worth Center
02:38PM 32.7672 -98.0114 81° East 478 550 35,000  Level Fort Worth Center
02:39PM 32.7908 -97.8433 80° East 478 550 35,000  Level Fort Worth Center
02:40PM 32.8100 -97.7025 81° East 478 550 35,000  Level Fort Worth Center
02:41PM 32.8375 -97.5247 80° East 488 562 35,000  Level Fort Worth Center
02:42PM 32.8606 -97.3664 80° East 491 565 35,000  Level Fort Worth Center
02:43PM 32.8811 -97.2278 80° East 483 556 35,000  Level Fort Worth Center
02:44PM 32.8892 -97.0522 87° East 478 550 35,000  Level Fort Worth Center
02:45PM 32.8886 -96.9064 90° East 478 550 35,000  Level Fort Worth Center
02:46PM 32.8881 -96.7578 90° East 465 535 35,000  Level Fort Worth Center
02:47PM 32.8828 -96.5747 92° East 478 550 35,000  Level Fort Worth Center
02:48PM 32.8858 -96.4114 89° East 489 563 35,000  Level Fort Worth Center
02:49PM 32.8886 -96.2531 89° East 489 563 35,000  Level Fort Worth Center
02:50PM 32.8869 -96.0972 91° East 474 545 35,000  Level Fort Worth Center
02:51PM 32.8875 -95.9389 90° East 474 545 35,000  Level Fort Worth Center
02:52PM 32.8856 -95.7806 91° East 474 545 35,000  Level Fort Worth Center
02:53PM 32.8833 -95.6225 91° East 474 545 35,000  Level Fort Worth Center
02:54PM 32.8792 -95.4792 92° East 480 552 35,000  Level Fort Worth Center
02:55PM 32.8850 -95.3231 87° East 475 547 35,000  Level Fort Worth Center
02:56PM 32.9072 -95.1667 80° East 475 547 35,000  Level Fort Worth Center
02:57PM 32.9317 -95.0125 79° East 475 547 35,000  Level Fort Worth Center
02:58PM 32.9558 -94.8608 79° East 470 541 35,000  Level Fort Worth Center
02:59PM 32.9797 -94.7067 79° East 470 541 35,000  Level Fort Worth Center
03:00PM 33.0011 -94.5500 81° East 470 541 35,000  Level Fort Worth Center
03:01PM 33.0247 -94.3956 80° East 470 541 35,000  Level Fort Worth Center
03:02PM 33.0458 -94.2389 81° East 470 541 35,000  Level Fort Worth Center
03:03PM 33.0689 -94.0819 80° East 470 541 35,000  Level Fort Worth Center
03:04PM 33.0900 -93.9272 81° East 470 541 35,000  Level Fort Worth Center
03:05PM 33.1125 -93.7703 80° East 470 541 35,000  Level Fort Worth Center
03:06PM 33.1350 -93.6156 80° East 470 541 35,000  Level Fort Worth Center
03:07PM 33.1575 -93.4633 80° East 470 541 35,000  Level Fort Worth Center
03:08PM 33.1797 -93.3083 80° East 470 541 35,000  Level Fort Worth Center
03:09PM 33.2017 -93.1558 80° East 470 541 35,000  Level Fort Worth Center
03:10PM 33.2236 -93.0008 80° East 470 541 35,000  Level Fort Worth Center
03:11PM 33.2450 -92.8458 81° East 470 541 35,000  Level Fort Worth Center
03:12PM 33.2644 -92.6933 81° East 470 541 35,000  Level Fort Worth Center
03:13PM 33.2794 -92.5361 83° East 470 541 35,000  Level Fort Worth Center
03:14PM 33.3000 -92.2833 84° East 474 545 35,000  Level Memphis Center
03:15PM 33.3169 -92.1272 83° East 474 545 35,000  Level Memphis Center
03:16PM 33.3294 -91.9733 84° East 474 545 35,000  Level Memphis Center
03:17PM 33.3461 -91.8169 83° East 474 545 35,000  Level Memphis Center
03:18PM 33.3519 -91.6753 87° East 474 545 35,000  Level Memphis Center
03:19PM 33.3617 -91.5186 86° East 474 545 35,000  Level Memphis Center
03:20PM 33.3778 -91.3647 83° East 474 545 35,000  Level Memphis Center
03:21PM 33.3914 -91.2056 84° East 474 545 35,000  Level Memphis Center
03:22PM 33.4028 -91.0514 85° East 474 545 35,000  Level Memphis Center
03:23PM 33.4161 -90.8922 84° East 474 545 35,000  Level Memphis Center
03:24PM 33.4292 -90.7356 84° East 474 545 35,000  Level Memphis Center
03:25PM 33.4400 -90.5814 85° East 474 545 35,000  Level Memphis Center
03:26PM 33.4525 -90.4244 85° East 474 545 35,000  Level Memphis Center
03:27PM 33.4631 -90.2650 85° East 474 545 35,000  Level Memphis Center
03:28PM 33.4775 -90.1081 84° East 474 545 35,000  Level Memphis Center
03:29PM 33.4894 -89.9511 85° East 474 545 35,000 480 Level Memphis Center
03:30PM 33.4994 -89.7942 86° East 474 545 36,000 900 Climbing Memphis Center
03:31PM 33.5111 -89.6397 85° East 474 545 36,800 480 Climbing Memphis Center
03:32PM 33.5225 -89.4875 85° East 464 534 37,000 60 Climbing Memphis Center
03:33PM 33.5319 -89.3356 86° East 464 534 37,000  Level Memphis Center
03:34PM 33.5411 -89.1833 86° East 464 534 37,000  Level Memphis Center
03:35PM 33.5519 -89.0311 85° East 464 534 37,000  Level Memphis Center
03:36PM 33.5606 -88.8789 86° East 464 534 37,000  Level Memphis Center
03:37PM 33.5650 -88.7292 88° East 458 527 37,000  Level Memphis Center
03:38PM 33.5756 -88.5769 85° East 458 527 37,000  Level Memphis Center
03:39PM 33.5856 -88.4197 86° East 465 535 37,000  Level Memphis Center
03:41PM 33.6039 -88.1117 86° East 465 535 37,000  Level Atlanta Center
03:42PM 33.6150 -87.9600 85° East 459 528 37,000  Level Atlanta Center
03:43PM 33.6219 -87.8031 87° East 459 528 37,000  Level Atlanta Center
03:44PM 33.6308 -87.6489 86° East 459 528 37,000  Level Atlanta Center
03:45PM 33.6372 -87.4944 87° East 459 528 37,000  Level Atlanta Center
03:46PM 33.6458 -87.3375 86° East 459 528 37,000  Level Atlanta Center
03:47PM 33.6561 -87.1833 85° East 459 528 37,000  Level Atlanta Center
03:48PM 33.6619 -87.0289 87° East 459 528 37,000  Level Atlanta Center
03:49PM 33.6678 -86.8767 87° East 459 528 37,000  Level Atlanta Center
03:50PM 33.6669 -86.7169 90° East 459 528 37,000  Level Atlanta Center
03:51PM 33.6661 -86.5622 90° East 459 528 37,000  Level Atlanta Center
03:52PM 33.6650 -86.4075 90° East 459 528 37,000  Level Atlanta Center
03:53PM 33.6617 -86.2550 91° East 459 528 37,000  Level Atlanta Center
03:54PM 33.6600 -86.1028 91° East 459 528 37,000  Level Atlanta Center
03:55PM 33.6587 -86.0938 91° East  Level FlightAware Approximate
03:55PM 33.6583 -85.9531 91° East 459 528 37,000  Level Atlanta Center
03:56PM 33.6606 -85.7958 89° East 459 528 37,000  Level Atlanta Center
03:57PM 33.6544 -85.6486 93° East 446 513 37,000  Level Atlanta Center
03:58PM 33.6542 -85.4939 90° East 451 519 37,000  Level Atlanta Center
03:59PM 33.6517 -85.3439 91° East 463 533 37,000  Level Atlanta Center
04:00PM 33.6469 -85.1867 92° East 458 527 37,000  Level Atlanta Center
04:01PM 33.6442 -85.0319 91° East 459 528 37,000  Level Atlanta Center
04:02PM 33.6392 -84.8772 92° East 464 534 37,000  Level Atlanta Center
04:03PM 33.6358 -84.7200 91° East 470 541 37,000  Level Atlanta Center
04:04PM 33.6303 -84.5628 92° East 470 541 37,000  Level Atlanta Center
04:05PM 33.6267 -84.3956 91° East 459 528 37,000  Level Atlanta Center
04:06PM 33.6417 -84.2408 83° East 459 528 37,000  Level Atlanta Center
04:07PM 33.6814 -84.1136 69° East 446 513 37,000  Level Atlanta Center
04:08PM 33.7503 -83.9939 55° Northeast 430 495 37,000  Level Atlanta Center
04:09PM 33.7605 -83.9781 55° Northeast  Level FlightAware Approximate
04:09PM 33.8233 -83.8814 52° Northeast 430 495 37,000  Level Atlanta Center
04:10PM 33.9025 -83.7561 53° Northeast 424 488 37,000  Level Atlanta Center
04:11PM 33.9731 -83.6406 54° Northeast 419 482 37,000  Level Atlanta Center
04:12PM 34.0458 -83.5300 52° Northeast 414 476 37,000  Level Atlanta Center
04:13PM 34.1161 -83.4167 53° Northeast 414 476 37,000  Level Atlanta Center
04:14PM 34.1867 -83.3056 52° Northeast 415 478 37,000  Level Atlanta Center
04:15PM 34.2589 -83.1892 53° Northeast 420 483 37,000  Level Atlanta Center
04:16PM 34.3289 -83.0728 54° Northeast 415 478 37,000  Level Atlanta Center
04:17PM 34.4011 -82.9589 52° Northeast 421 484 37,000  Level Atlanta Center
04:18PM 34.4731 -82.8419 53° Northeast 421 484 37,000  Level Atlanta Center
04:19PM 34.5428 -82.7275 53° Northeast 416 479 37,000  Level Atlanta Center
04:20PM 34.6144 -82.6128 53° Northeast 421 484 37,000  Level Atlanta Center
04:21PM 34.6861 -82.5003 52° Northeast 421 484 37,000  Level Atlanta Center
04:22PM 34.7597 -82.3803 53° Northeast 427 491 37,000  Level Atlanta Center
04:23PM 34.8311 -82.2625 54° Northeast 432 497 37,000  Level Atlanta Center
04:24PM 34.9006 -82.1494 53° Northeast 427 491 37,000  Level Atlanta Center
04:25PM 34.9656 -82.0467 52° Northeast 419 482 37,000 -780 Level Atlanta Center
04:26PM 35.0325 -81.9308 55° Northeast 419 482 35,500 -1,020 Descending Atlanta Center
04:27PM 35.1033 -81.7997 57° Northeast 414 476 35,000 -300 Descending Atlanta Center
04:28PM 35.1678 -81.6758 58° Northeast 419 482 35,000  Level Atlanta Center
04:29PM 35.2300 -81.5597 57° Northeast 416 479 35,000  Level Atlanta Center
04:30PM 35.2942 -81.4356 58° Northeast 422 486 35,000  Level Atlanta Center
04:32PM 35.3521 -81.2872 52° Northeast  Level FlightAware Approximate
04:32PM 35.4161 -81.1947 52° Northeast 415 478 35,000  Level Atlanta Center
04:33PM 35.4758 -81.0753 58° Northeast 415 478 35,000  Level Atlanta Center
04:34PM 35.5400 -80.9608 55° Northeast 415 478 35,000  Level Atlanta Center
04:35PM 35.5994 -80.8461 57° Northeast 415 478 35,000 -120 Level Atlanta Center
04:36PM 35.6592 -80.7314 57° Northeast 405 466 34,800 -1,380 Descending Atlanta Center
04:37PM 35.7206 -80.6139 57° Northeast 405 466 32,300 -1,920 Descending Atlanta Center
04:38PM 35.7817 -80.4933 58° Northeast 405 466 31,000 -660 Descending Atlanta Center
04:39PM 35.8447 -80.3678 58° Northeast 420 483 31,000  Level Atlanta Center
04:40PM 35.9097 -80.2392 58° Northeast 426 490 31,000  Level Atlanta Center
04:43PM 36.0489 -79.9697 57° Northeast 435 501 31,000  Level Washington Center
04:44PM 36.1222 -79.8478 53° Northeast 435 501 31,000  Level Washington Center
04:45PM 36.1914 -79.7203 56° Northeast 440 506 31,000  Level Washington Center
04:46PM 36.2667 -79.5850 55° Northeast 435 501 31,000 -60 Level Washington Center
04:47PM 36.3289 -79.4747 55° Northeast 435 501 30,900 -60 Descending Washington Center
04:48PM 36.3997 -79.3492 55° Northeast 435 501 30,900 -780 Level Washington Center
04:49PM 36.4681 -79.2286 55° Northeast 435 501 29,400 -960 Descending Washington Center
04:50PM 36.5342 -79.1153 54° Northeast 423 487 29,000 -240 Descending Washington Center
04:51PM 36.6000 -78.9994 55° Northeast 417 480 29,000  Level Washington Center
04:52PM 36.6706 -78.8625 57° Northeast 417 480 29,000  Level Washington Center
04:53PM 36.7364 -78.7461 55° Northeast 417 480 29,000  Level Washington Center
04:54PM 36.7889 -78.6444 57° Northeast 399 459 29,000 -120 Level Washington Center
04:55PM 36.8522 -78.5328 55° Northeast 394 453 28,800 -540 Descending Washington Center
04:56PM 36.9133 -78.4208 56° Northeast 394 453 28,000 -420 Descending Washington Center
04:57PM 36.9917 -78.2781 55° Northeast 424 488 28,000 -420 Level Washington Center
04:58PM 37.0592 -78.1528 56° Northeast 435 501 27,200 -840 Descending Washington Center
04:59PM 37.1178 -78.0428 56° Northeast 435 501 26,400 -600 Descending Washington Center
05:00PM 37.1850 -77.9197 56° Northeast 430 495 26,000 -240 Descending Washington Center
05:01PM 37.2806 -77.8367 35° Northeast 412 474 26,000 -360 Level Washington Center
05:02PM 37.3817 -77.7742 26° Northeast 406 467 25,300 -900 Descending Washington Center
05:03PM 37.4850 -77.7092 27° Northeast 406 467 24,300 -1,020 Descending Washington Center
05:04PM 37.5864 -77.6464 26° Northeast 401 461 23,300 -660 Descending Washington Center
05:05PM 37.6853 -77.5836 27° Northeast 396 456 23,000 -180 Descending Washington Center
05:06PM 37.7761 -77.5256 27° Northeast 383 441 23,000 -120 Level Washington Center
05:07PM 37.8686 -77.4672 26° Northeast 371 427 22,800 -600 Descending Washington Center
05:08PM 37.9592 -77.4089 27° Northeast 366 421 21,800 -960 Descending Washington Center
05:09PM 38.0678 -77.4036 North 347 399 21,000 -900 Descending Washington Center
05:10PM 38.1542 -77.3478 27° Northeast 347 399 20,100 -1,140 Descending Washington Center
05:11PM 38.2197 -77.2883 35° Northeast 347 399 18,800 -1,800 Descending Washington Center
05:12PM 38.3125 -77.2033 36° Northeast 342 394 16,600 -1,920 Descending Washington Center
05:13PM 38.3886 -77.1333 36° Northeast 337 388 15,000 -1,260 Descending Washington Center
05:14PM 38.4700 -77.1244 North 299 344 14,100 -1,200 Descending Washington Center
05:15PM 38.5472 -77.1233 North 283 326 12,600 -1,560 Descending Washington Center
05:16PM 38.6222 -77.1169 North 276 318 11,100 -960 Descending Washington Center
05:16PM 38.6500 -77.0500 62° Northeast 289 333 11,000 -120 Descending Potomac TRACON
05:17PM 38.6667 -76.9500 78° East 294 338 10,900 -600 Descending Potomac TRACON
05:18PM 38.6833 -76.8500 78° East 290 334 9,800 -900 Descending Potomac TRACON
05:19PM 38.7000 -76.7500 78° East 285 328 9,100 -1,260 Descending Potomac TRACON
05:20PM 38.7333 -76.6667 63° Northeast 280 322 7,500 -1,620 Descending Potomac TRACON
05:21PM 38.7667 -76.5833 63° Northeast 276 318 6,100 -900 Descending Potomac TRACON
05:22PM 38.8167 -76.5167 46° Northeast 279 321 5,800 -960 Descending Potomac TRACON
05:23PM 38.9000 -76.5000 North 262 302 4,200 -900 Descending Potomac TRACON
05:24PM 38.9667 -76.4667 21° North 229 264 4,000 -180 Descending Potomac TRACON
05:25PM 39.0167 -76.4833 345° North 212 244 3,900 -360 Descending Potomac TRACON
05:26PM 39.0500 -76.5333 311° West 167 192 3,300 -600 Descending Potomac TRACON